Time;durP1;ratioP1;P1;durP2;ratioP2;P2;SDS_P1;SDS_P2;PMS_P1;PMS_P2;Temp;Humidity;BMP_temperature;BMP_pressure;BME280_temperature;BME280_humidity;BME280_pressure;Samples;Min_cycle;Max_cycle;Signal;HPM_P1;HPM_P2
2023/01/04 00:02:20;;;;;;;;;;;;;;;6.46;100.00;101751.56;5568078;32;34784;-72
2023/01/04 00:05:27;;;;;;;;;;;;;;;6.44;100.00;101751.66;5567209;32;34283;-73
2023/01/04 00:08:33;;;;;;;;;;;;;;;6.40;100.00;101752.00;5567836;32;35171;-73
2023/01/04 00:11:44;;;;;;;;;;;;;;;6.33;100.00;101756.03;5568021;32;34321;-73
2023/01/04 00:14:51;;;;;;;;;;;;;;;6.22;100.00;101764.69;5567973;32;34566;-72
2023/01/04 00:17:59;;;;;;;;;;;;;;;6.19;100.00;101754.34;5567075;32;34869;-72
2023/01/04 00:21:06;;;;;;;;;;;;;;;6.18;100.00;101755.28;5567853;32;34855;-73
2023/01/04 00:24:14;;;;;;;;;;;;;;;6.16;100.00;101759.81;5567905;32;34955;-72
2023/01/04 00:27:19;;;;;;;;;;;;;;;6.08;100.00;101762.16;5567775;32;34223;-74
2023/01/04 00:30:30;;;;;;;;;;;;;;;6.01;100.00;101758.22;5567679;32;34782;-72
2023/01/04 00:33:36;;;;;;;;;;;;;;;5.99;100.00;101754.88;5553694;32;33774;-72
2023/01/04 00:36:43;;;;;;;;;;;;;;;5.98;100.00;101751.41;5541847;32;34275;-73
2023/01/04 00:39:49;;;;;;;;;;;;;;;5.92;100.00;101756.22;5567644;32;34655;-72
2023/01/04 00:42:59;;;;;;;;;;;;;;;5.89;100.00;101759.94;5553244;32;34266;-72
2023/01/04 00:46:10;;;;;;;;;;;;;;;5.97;100.00;101754.12;5553669;32;34471;-72
2023/01/04 00:49:18;;;;;;;;;;;;;;;5.84;100.00;101758.50;5567604;32;34943;-72
2023/01/04 00:52:27;;;;;;;;;;;;;;;5.79;100.00;101756.19;5553457;32;32953;-72
2023/01/04 00:55:34;;;;;;;;;;;;;;;5.68;100.00;101756.91;5567763;32;34427;-72
2023/01/04 00:58:41;;;;;;;;;;;;;;;5.73;100.00;101758.38;5566731;32;34274;-72
2023/01/04 01:01:50;;;;;;;;;;;;;;;5.57;100.00;101766.47;5567516;32;34982;-72
2023/01/04 01:04:56;;;;;;;;;;;;;;;5.51;100.00;101767.72;5553471;32;34331;-72
2023/01/04 01:08:23;;;;;;;;;;;;;;;5.43;100.00;101767.38;5567495;32;34723;-72
2023/01/04 01:11:30;;;;;;;;;;;;;;;5.43;100.00;101761.25;5547619;32;35025;-72
2023/01/04 01:14:38;;;;;;;;;;;;;;;5.50;100.00;101775.72;5547676;32;34350;-72
2023/01/04 01:17:47;;;;;;;;;;;;;;;5.39;100.00;101773.78;5547774;32;34796;-72
2023/01/04 01:20:57;;;;;;;;;;;;;;;5.38;100.00;101776.50;5546871;32;34697;-72
2023/01/04 01:24:04;;;;;;;;;;;;;;;5.33;100.00;101781.22;5546823;32;32947;-72
2023/01/04 01:27:12;;;;;;;;;;;;;;;5.18;100.00;101785.72;5547686;32;34217;-72
2023/01/04 01:30:20;;;;;;;;;;;;;;;5.10;100.00;101780.09;5547503;32;34422;-72
2023/01/04 01:33:28;;;;;;;;;;;;;;;5.01;100.00;101786.78;5547597;32;34143;-72
2023/01/04 01:36:36;;;;;;;;;;;;;;;4.97;100.00;101784.47;5546543;32;34219;-72
2023/01/04 01:39:44;;;;;;;;;;;;;;;5.01;100.00;101776.28;5546287;32;33951;-72
2023/01/04 01:42:52;;;;;;;;;;;;;;;4.82;100.00;101778.38;5546249;32;32832;-72
2023/01/04 01:45:58;;;;;;;;;;;;;;;4.84;100.00;101773.03;5546265;32;34001;-72
2023/01/04 01:49:13;;;;;;;;;;;;;;;4.90;100.00;101773.47;5546354;32;34328;-72
2023/01/04 01:52:27;;;;;;;;;;;;;;;4.79;100.00;101768.06;5546193;32;32624;-72
2023/01/04 01:55:37;;;;;;;;;;;;;;;4.96;100.00;101775.72;5547071;32;34011;-72
2023/01/04 01:58:47;;;;;;;;;;;;;;;4.92;100.00;101766.34;5548749;32;34388;-72
2023/01/04 02:01:55;;;;;;;;;;;;;;;4.91;100.00;101769.06;5549670;32;33966;-72
2023/01/04 02:05:05;;;;;;;;;;;;;;;5.06;100.00;101768.94;5549604;32;34933;-72
2023/01/04 02:08:12;;;;;;;;;;;;;;;5.15;100.00;101770.97;5548742;32;34196;-72
2023/01/04 02:11:19;;;;;;;;;;;;;;;5.06;100.00;101776.81;5529383;32;33974;-72
2023/01/04 02:14:28;;;;;;;;;;;;;;;5.12;100.00;101780.84;5529228;32;34777;-72
2023/01/04 02:17:34;;;;;;;;;;;;;;;4.86;100.00;101776.41;5530201;32;34291;-72
2023/01/04 02:20:49;;;;;;;;;;;;;;;4.77;100.00;101767.31;5529218;32;34658;-72
2023/01/04 02:24:00;;;;;;;;;;;;;;;4.70;100.00;101769.47;5530468;32;34732;-72
2023/01/04 02:27:19;;;;;;;;;;;;;;;4.85;100.00;101769.44;5530125;32;34605;-72
2023/01/04 02:30:51;;;;;;;;;;;;;;;4.72;100.00;101769.37;5528878;32;32663;-72
2023/01/04 02:34:17;;;;;;;;;;;;;;;4.59;100.00;101776.34;5529280;32;33975;-72
2023/01/04 02:37:42;;;;;;;;;;;;;;;4.66;100.00;101782.91;5529209;32;34317;-72
2023/01/04 02:40:58;;;;;;;;;;;;;;;4.54;100.00;101779.28;5528633;32;35147;-72
2023/01/04 02:51:00;;;;;;;;;;;;;;;4.66;100.00;101770.59;5529883;32;34824;-72
2023/01/04 02:54:14;;;;;;;;;;;;;;;4.57;100.00;101771.19;5529798;32;34885;-72
2023/01/04 02:57:41;;;;;;;;;;;;;;;4.52;100.00;101767.16;5529758;32;34685;-71
2023/01/04 03:08:20;;;;;;;;;;;;;;;3.83;100.00;101767.84;5529239;32;34277;-71
2023/01/04 03:15:13;;;;;;;;;;;;;;;4.51;100.00;101761.03;5529495;32;34300;-71
2023/01/04 03:18:23;;;;;;;;;;;;;;;4.49;100.00;101755.06;5529580;32;34631;-71
2023/01/04 03:21:30;;;;;;;;;;;;;;;4.51;100.00;101761.03;5529327;32;34864;-71
2023/01/04 03:49:05;;;;;;;;;;;;;;;4.48;100.00;101769.13;5529364;32;34618;-72
2023/01/04 03:52:14;;;;;;;;;;;;;;;4.37;100.00;101764.53;5514888;32;33547;-72
2023/01/04 03:55:24;;;;;;;;;;;;;;;4.39;100.00;101767.06;5516248;32;34227;-72
2023/01/04 03:58:31;;;;;;;;;;;;;;;4.29;100.00;101763.31;5528353;32;34260;-72
2023/01/04 04:01:42;;;;;;;;;;;;;;;4.27;100.00;101755.53;5529163;32;34185;-73
2023/01/04 04:08:28;;;;;;;;;;;;;;;4.29;100.00;101750.19;5483462;32;1003473;-71
2023/01/04 04:11:35;;;;;;;;;;;;;;;4.34;100.00;101756.00;5567997;32;34605;-72
2023/01/04 04:14:41;;;;;;;;;;;;;;;4.35;100.00;101748.03;5567111;32;34333;-72
2023/01/04 04:17:50;;;;;;;;;;;;;;;4.36;100.00;101752.31;5568046;32;34632;-72
2023/01/04 04:20:59;;;;;;;;;;;;;;;4.39;100.00;101748.69;5566690;32;34780;-72
2023/01/04 04:24:15;;;;;;;;;;;;;;;4.39;100.00;101746.06;5567885;32;34953;-72
2023/01/04 04:27:21;;;;;;;;;;;;;;;4.31;100.00;101756.16;5554350;32;34484;-72
2023/01/04 04:30:30;;;;;;;;;;;;;;;4.28;100.00;101748.50;5567914;32;34208;-72
2023/01/04 04:33:36;;;;;;;;;;;;;;;3.98;100.00;101759.06;5554055;32;32812;-72
2023/01/04 04:36:42;;;;;;;;;;;;;;;3.81;100.00;101759.25;5554077;32;33253;-71
2023/01/04 04:39:49;;;;;;;;;;;;;;;3.98;100.00;101773.97;5528587;32;34286;-72
2023/01/04 04:42:59;;;;;;;;;;;;;;;4.11;100.00;101759.19;5567652;32;34266;-72
2023/01/04 04:46:06;;;;;;;;;;;;;;;4.05;100.00;101763.03;5567675;32;34309;-72
2023/01/04 04:49:17;;;;;;;;;;;;;;;3.85;100.00;101773.88;5567648;32;34619;-72
2023/01/04 04:52:24;;;;;;;;;;;;;;;3.63;100.00;101760.34;5554157;32;34723;-72
2023/01/04 04:55:31;;;;;;;;;;;;;;;3.43;100.00;101769.34;5567690;32;34210;-72
2023/01/04 04:58:37;;;;;;;;;;;;;;;3.33;100.00;101765.56;5567320;32;33995;-71
2023/01/04 05:01:44;;;;;;;;;;;;;;;3.23;100.00;101770.50;5567387;32;34642;-72
2023/01/04 05:04:53;;;;;;;;;;;;;;;3.13;100.00;101771.09;5553505;32;33571;-72
2023/01/04 05:08:00;;;;;;;;;;;;;;;2.88;100.00;101767.22;5553248;32;32619;-72
2023/01/04 05:11:11;;;;;;;;;;;;;;;2.66;100.00;101779.81;5553946;32;34792;-71
2023/01/04 05:14:24;;;;;;;;;;;;;;;2.50;100.00;101774.53;5567341;32;34244;-72
2023/01/04 05:17:33;;;;;;;;;;;;;;;2.41;100.00;101776.81;5567238;32;34719;-72
2023/01/04 05:20:45;;;;;;;;;;;;;;;2.30;100.00;101774.75;5567084;32;34847;-71
2023/01/04 05:23:52;;;;;;;;;;;;;;;2.18;100.00;101784.09;5567560;32;34239;-72
2023/01/04 05:26:58;;;;;;;;;;;;;;;2.09;100.00;101781.94;5567065;32;34879;-72
2023/01/04 05:33:30;;;;;;;;;;;;;;;2.02;100.00;101784.97;5569103;32;34647;-70
2023/01/04 05:36:36;;;;;;;;;;;;;;;2.05;100.00;101790.88;5569429;32;34748;-73
2023/01/04 05:39:45;;;;;;;;;;;;;;;2.14;100.00;101785.16;5556247;32;34725;-71
2023/01/04 05:42:50;;;;;;;;;;;;;;;2.03;100.00;101786.66;5569306;32;34324;-72
2023/01/04 05:45:58;;;;;;;;;;;;;;;1.91;100.00;101795.13;5569213;32;34566;-72
2023/01/04 05:49:07;;;;;;;;;;;;;;;1.81;100.00;101791.28;5575458;31;35161;-72
2023/01/04 05:52:17;;;;;;;;;;;;;;;1.72;100.00;101792.59;5588882;31;34348;-72
2023/01/04 05:55:25;;;;;;;;;;;;;;;1.62;100.00;101794.84;5588891;31;34659;-72
2023/01/04 05:58:33;;;;;;;;;;;;;;;1.53;100.00;101795.28;5574624;31;34396;-72
2023/01/04 06:01:39;;;;;;;;;;;;;;;1.65;100.00;101794.66;5588630;31;35093;-73
2023/01/04 06:04:46;;;;;;;;;;;;;;;2.00;100.00;101794.66;5575178;31;33073;-73
2023/01/04 06:08:01;;;;;;;;;;;;;;;1.88;100.00;101805.75;5588626;31;34664;-73
2023/01/04 06:11:09;;;;;;;;;;;;;;;1.79;100.00;101803.63;5588417;31;34261;-73
2023/01/04 06:14:18;;;;;;;;;;;;;;;1.65;100.00;101794.66;5587942;31;34220;-73
2023/01/04 06:17:25;;;;;;;;;;;;;;;1.58;100.00;101803.75;5568956;32;34898;-72
2023/01/04 06:20:35;;;;;;;;;;;;;;;1.48;100.00;101804.28;5568317;32;34043;-72
2023/01/04 06:23:45;;;;;;;;;;;;;;;1.46;100.00;101812.19;5568078;32;34117;-73
2023/01/04 06:26:53;;;;;;;;;;;;;;;1.49;100.00;101816.44;5568885;32;34524;-72
2023/01/04 06:30:03;;;;;;;;;;;;;;;1.43;100.00;101828.03;5568793;32;34862;-73
2023/01/04 06:33:14;;;;;;;;;;;;;;;1.36;100.00;101820.53;5566131;32;34435;-73
2023/01/04 06:36:21;;;;;;;;;;;;;;;1.33;100.00;101821.56;5568757;32;34620;-73
2023/01/04 06:39:28;;;;;;;;;;;;;;;1.35;100.00;101827.56;5568857;32;34511;-72
2023/01/04 06:42:46;;;;;;;;;;;;;;;1.30;100.00;101821.72;5568355;32;34136;-72
2023/01/04 06:45:55;;;;;;;;;;;;;;;1.28;100.00;101820.94;5554792;32;33581;-72
2023/01/04 06:49:04;;;;;;;;;;;;;;;1.21;100.00;101827.38;5568551;32;34147;-73
2023/01/04 06:52:11;;;;;;;;;;;;;;;1.23;100.00;101821.16;5568804;32;34878;-73
2023/01/04 06:55:17;;;;;;;;;;;;;;;1.19;100.00;101827.44;5555127;32;34797;-73
2023/01/04 06:58:23;;;;;;;;;;;;;;;1.17;100.00;101826.66;5568621;32;34696;-73
2023/01/04 07:01:28;;;;;;;;;;;;;;;1.17;100.00;101834.50;5567600;32;34726;-72
2023/01/04 07:04:35;;;;;;;;;;;;;;;1.16;100.00;101827.56;5555303;32;35039;-73
2023/01/04 07:07:43;;;;;;;;;;;;;;;1.24;100.00;101833.31;5568243;32;34761;-72
2023/01/04 07:10:52;;;;;;;;;;;;;;;1.30;100.00;101834.78;5568313;32;34542;-74
2023/01/04 07:13:59;;;;;;;;;;;;;;;1.38;100.00;101832.63;5568796;32;34677;-72
2023/01/04 07:17:05;;;;;;;;;;;;;;;1.47;100.00;101840.03;5541498;32;34291;-73
2023/01/04 07:20:12;;;;;;;;;;;;;;;1.55;100.00;101844.91;5553991;32;34891;-73
2023/01/04 07:23:21;;;;;;;;;;;;;;;1.77;100.00;101856.00;5554354;32;33857;-74
2023/01/04 07:26:31;;;;;;;;;;;;;;;1.83;100.00;101852.25;5568395;32;34117;-73
2023/01/04 07:29:37;;;;;;;;;;;;;;;1.77;100.00;101849.94;5568291;32;34284;-72
2023/01/04 07:32:47;;;;;;;;;;;;;;;2.07;100.00;101832.69;5554406;32;33134;-73
2023/01/04 07:35:54;;;;;;;;;;;;;;;2.08;100.00;101826.53;5568164;32;34110;-73
2023/01/04 07:38:59;;;;;;;;;;;;;;;1.97;100.00;101829.69;5553863;32;33842;-73
2023/01/04 07:42:06;;;;;;;;;;;;;;;1.96;100.00;101835.84;5568129;32;34978;-73
2023/01/04 07:45:15;;;;;;;;;;;;;;;2.02;100.00;101834.69;5553789;32;33428;-72
2023/01/04 07:48:20;;;;;;;;;;;;;;;2.09;100.00;101838.69;5568027;32;33260;-72
2023/01/04 07:51:25;;;;;;;;;;;;;;;2.08;100.00;101842.25;5568212;32;35156;-72
2023/01/04 07:54:30;;;;;;;;;;;;;;;2.17;100.00;101847.88;5567790;32;34324;-72
2023/01/04 07:57:40;;;;;;;;;;;;;;;2.29;100.00;101850.75;5568013;32;34215;-73
2023/01/04 08:00:49;;;;;;;;;;;;;;;2.34;100.00;101854.00;5568069;32;34683;-72
2023/01/04 08:03:55;;;;;;;;;;;;;;;2.41;100.00;101858.84;5568107;32;33855;-72
2023/01/04 08:07:02;;;;;;;;;;;;;;;2.44;100.00;101856.06;5567742;32;34590;-73
2023/01/04 08:10:06;;;;;;;;;;;;;;;2.62;100.00;101857.72;5567937;32;34733;-73
2023/01/04 08:13:11;;;;;;;;;;;;;;;2.61;100.00;101849.94;5567085;32;34310;-73
2023/01/04 08:16:20;;;;;;;;;;;;;;;2.64;100.00;101857.63;5566998;32;33887;-73
2023/01/04 08:19:26;;;;;;;;;;;;;;;2.72;100.00;101841.50;5567079;32;33810;-72
2023/01/04 08:22:31;;;;;;;;;;;;;;;2.73;100.00;101841.41;5567834;32;33956;-72
2023/01/04 08:25:35;;;;;;;;;;;;;;;2.76;100.00;101848.28;5566476;32;32959;-72
2023/01/04 08:28:42;;;;;;;;;;;;;;;2.81;100.00;101838.41;5566885;32;34022;-72
2023/01/04 08:31:48;;;;;;;;;;;;;;;2.87;100.00;101844.16;5566707;32;34161;-72
2023/01/04 08:34:53;;;;;;;;;;;;;;;2.98;100.00;101841.78;5553863;32;34191;-72
2023/01/04 08:37:56;;;;;;;;;;;;;;;3.07;100.00;101850.94;5552793;32;34670;-72
2023/01/04 08:41:23;;;;;;;;;;;;;;;3.10;100.00;101848.13;5552940;32;34249;-72
2023/01/04 08:44:47;;;;;;;;;;;;;;;3.17;100.00;101844.25;5553211;32;33124;-72
2023/01/04 08:48:01;;;;;;;;;;;;;;;3.25;100.00;101847.28;5567454;32;34389;-73
2023/01/04 08:51:08;;;;;;;;;;;;;;;3.33;100.00;101836.38;5553412;32;34323;-73
2023/01/04 08:54:12;;;;;;;;;;;;;;;3.39;100.00;101843.87;5566814;32;34164;-73
2023/01/04 08:57:19;;;;;;;;;;;;;;;3.49;100.00;101847.69;5557044;32;34401;-72
2023/01/04 09:00:31;;;;;;;;;;;;;;;3.64;100.00;101849.44;5554297;32;34228;-73
2023/01/04 09:03:36;;;;;;;;;;;;;;;3.80;100.00;101847.63;5567163;32;34877;-73
2023/01/04 09:06:41;;;;;;;;;;;;;;;3.82;100.00;101848.41;5553211;32;34070;-73
2023/01/04 09:09:46;;;;;;;;;;;;;;;3.87;100.00;101845.53;5566992;32;34222;-73
2023/01/04 09:12:53;;;;;;;;;;;;;;;3.94;100.00;101841.59;5567138;32;33508;-73
2023/01/04 09:16:01;;;;;;;;;;;;;;;4.03;100.00;101841.03;5553759;32;34242;-73
2023/01/04 09:19:09;;;;;;;;;;;;;;;4.11;100.00;101838.81;5566951;32;34929;-73
2023/01/04 09:22:22;;;;;;;;;;;;;;;4.18;100.00;101836.66;5552877;32;32486;-74
2023/01/04 09:25:30;;;;;;;;;;;;;;;4.24;100.00;101834.53;5551158;32;33949;-73
2023/01/04 09:28:36;;;;;;;;;;;;;;;4.35;100.00;101820.75;5553109;32;34247;-74
2023/01/04 09:31:43;;;;;;;;;;;;;;;4.43;100.00;101820.28;5552559;32;34372;-74
2023/01/04 09:34:49;;;;;;;;;;;;;;;4.63;100.00;101817.28;5552581;32;34191;-74
2023/01/04 09:37:54;;;;;;;;;;;;;;;4.69;100.00;101812.50;5566610;32;34415;-73
2023/01/04 09:41:01;;;;;;;;;;;;;;;4.86;100.00;101821.09;5566499;32;34362;-73
2023/01/04 09:44:08;;;;;;;;;;;;;;;4.92;100.00;101803.16;5566345;32;34690;-73
2023/01/04 09:47:14;;;;;;;;;;;;;;;5.00;100.00;101810.56;5566435;32;34340;-74
2023/01/04 09:50:40;;;;;;;;;;;;;;;5.06;100.00;101805.75;5553046;32;34121;-73
2023/01/04 09:53:46;;;;;;;;;;;;;;;5.15;100.00;101791.16;5565419;32;34888;-73
2023/01/04 09:56:53;;;;;;;;;;;;;;;5.22;100.00;101782.81;5551204;32;34142;-73
2023/01/04 10:00:15;;;;;;;;;;;;;;;5.21;100.00;101789.00;5551886;32;34692;-75
2023/01/04 10:03:24;;;;;;;;;;;;;;;5.27;100.00;101779.88;5565807;32;34799;-73
2023/01/04 10:06:30;;;;;;;;;;;;;;;5.59;100.00;101769.84;5564808;32;33962;-73
2023/01/04 10:09:36;;;;;;;;;;;;;;;5.70;100.00;101769.97;5566082;31;34065;-74
2023/01/04 10:12:52;;;;;;;;;;;;;;;5.76;100.00;101763.47;5551854;32;35141;-73
2023/01/04 10:16:21;;;;;;;;;;;;;;;5.93;100.00;101757.91;5539744;32;33714;-73
2023/01/04 10:19:50;;;;;;;;;;;;;;;6.07;100.00;101757.81;5567364;32;34394;-72
2023/01/04 10:23:28;;;;;;;;;;;;;;;6.01;100.00;101756.44;5557410;32;34903;-72
2023/01/04 10:26:55;;;;;;;;;;;;;;;6.03;100.00;101746.66;5568414;32;35312;-71
2023/01/04 10:29:59;;;;;;;;;;;;;;;6.12;100.00;101753.06;5568392;32;34068;-71
2023/01/04 10:33:12;;;;;;;;;;;;;;;6.21;100.00;101751.59;5554967;32;33836;-72
2023/01/04 10:36:20;;;;;;;;;;;;;;;6.47;100.00;101753.25;5568384;32;34328;-71
2023/01/04 10:39:26;;;;;;;;;;;;;;;6.49;100.00;101743.44;5554692;32;34954;-71
2023/01/04 10:42:43;;;;;;;;;;;;;;;6.49;100.00;101749.56;5552949;32;34508;-73
2023/01/04 10:45:48;;;;;;;;;;;;;;;6.54;100.00;101742.16;5567975;32;34543;-73
2023/01/04 10:48:59;;;;;;;;;;;;;;;6.57;100.00;101738.47;5568387;32;34657;-73
2023/01/04 10:52:14;;;;;;;;;;;;;;;6.75;100.00;101729.25;5567200;32;34112;-71
2023/01/04 10:55:24;;;;;;;;;;;;;;;6.96;100.00;101729.50;5568338;32;33548;-72
2023/01/04 10:58:37;;;;;;;;;;;;;;;7.26;100.00;101719.31;5553229;32;35797;-72
2023/01/04 11:01:53;;;;;;;;;;;;;;;7.33;100.00;101711.78;5568005;32;34065;-72
2023/01/04 11:05:04;;;;;;;;;;;;;;;7.42;100.00;101713.75;5568387;32;34965;-71
2023/01/04 11:08:22;;;;;;;;;;;;;;;7.51;100.00;101709.56;5553374;32;34547;-71
2023/01/04 11:11:34;;;;;;;;;;;;;;;7.44;100.00;101696.00;5564163;32;34911;-72
2023/01/04 11:14:41;;;;;;;;;;;;;;;7.73;100.00;101686.72;5567361;32;34622;-72
2023/01/04 11:17:49;;;;;;;;;;;;;;;7.78;100.00;101695.13;5567335;32;33209;-72
2023/01/04 11:20:54;;;;;;;;;;;;;;;7.74;100.00;101691.03;5566976;32;32766;-72
2023/01/04 11:24:00;;;;;;;;;;;;;;;7.84;100.00;101684.06;5567425;32;34710;-72
2023/01/04 11:27:30;;;;;;;;;;;;;;;7.91;100.00;101678.31;5567242;32;33130;-72
2023/01/04 11:30:44;;;;;;;;;;;;;;;7.94;100.00;101675.44;5540426;32;36432;-72
2023/01/04 11:33:56;;;;;;;;;;;;;;;7.97;100.00;101678.69;5554213;32;32843;-71
2023/01/04 11:37:00;;;;;;;;;;;;;;;7.90;100.00;101656.31;5554276;32;34507;-71
2023/01/04 11:40:23;;;;;;;;;;;;;;;7.86;100.00;101655.72;5568108;32;35199;-72
2023/01/04 11:43:30;;;;;;;;;;;;;;;7.90;100.00;101652.84;5554082;32;34816;-72
2023/01/04 11:46:36;;;;;;;;;;;;;;;7.95;100.00;101653.31;5554611;32;34388;-72
2023/01/04 11:49:42;;;;;;;;;;;;;;;8.01;100.00;101655.50;5553411;32;34513;-71
2023/01/04 11:52:48;;;;;;;;;;;;;;;7.92;100.00;101648.28;5542512;31;35967;-71
2023/01/04 11:56:10;;;;;;;;;;;;;;;7.86;100.00;101645.16;5547539;32;33766;-72
2023/01/04 11:59:22;;;;;;;;;;;;;;;7.93;100.00;101628.84;5554442;32;34048;-72
2023/01/04 12:02:31;;;;;;;;;;;;;;;7.97;100.00;101625.84;5566503;32;34544;-72
2023/01/04 12:06:18;;;;;;;;;;;;;;;8.04;100.00;101627.00;5558014;32;36118;-72
2023/01/04 12:09:23;;;;;;;;;;;;;;;8.06;100.00;101627.75;5567331;32;34274;-72
2023/01/04 12:12:31;;;;;;;;;;;;;;;8.11;100.00;101622.94;5567173;32;35007;-72
2023/01/04 12:15:37;;;;;;;;;;;;;;;8.82;100.00;101632.19;5553971;32;34012;-72
2023/01/04 12:18:45;;;;;;;;;;;;;;;9.33;100.00;101620.88;5567881;32;34270;-72
2023/01/04 12:21:55;;;;;;;;;;;;;;;9.60;98.99;101621.16;5553617;32;34563;-72
2023/01/04 12:25:04;;;;;;;;;;;;;;;9.98;92.75;101616.03;5553369;32;33985;-73
2023/01/04 12:28:27;;;;;;;;;;;;;;;10.04;90.51;101614.69;5553885;31;34035;-73
2023/01/04 12:31:33;;;;;;;;;;;;;;;9.69;90.85;101606.28;5570675;31;35353;-72
2023/01/04 12:34:42;;;;;;;;;;;;;;;9.70;91.49;101602.66;5554230;32;34258;-73
2023/01/04 12:37:50;;;;;;;;;;;;;;;10.08;87.61;101596.69;5554330;32;34192;-73
2023/01/04 12:40:58;;;;;;;;;;;;;;;10.10;89.67;101594.75;5566643;32;34868;-72
2023/01/04 12:44:25;;;;;;;;;;;;;;;10.27;84.76;101600.25;5567546;32;35032;-72
2023/01/04 12:51:12;;;;;;;;;;;;;;;10.30;86.96;101580.59;5566745;32;34583;-72
2023/01/04 12:54:47;;;;;;;;;;;;;;;10.17;85.68;101577.34;5566750;32;34683;-72
2023/01/04 12:57:59;;;;;;;;;;;;;;;10.07;86.54;101556.06;5567157;32;34856;-71
2023/01/04 13:01:06;;;;;;;;;;;;;;;10.23;85.78;101555.59;5566220;32;34866;-71
2023/01/04 13:04:26;;;;;;;;;;;;;;;10.10;85.86;101571.72;5566518;32;34901;-71
2023/01/04 13:07:39;;;;;;;;;;;;;;;10.10;85.22;101570.88;5567143;32;34919;-72
2023/01/04 13:10:52;;;;;;;;;;;;;;;10.23;85.66;101571.50;5561349;32;34268;-70
2023/01/04 13:14:02;;;;;;;;;;;;;;;10.21;83.79;101555.75;5540671;32;33441;-71
2023/01/04 13:17:13;;;;;;;;;;;;;;;9.86;84.90;101553.50;5553090;32;33492;-71
2023/01/04 13:20:24;;;;;;;;;;;;;;;10.03;87.07;101547.56;5567057;32;34363;-71
2023/01/04 13:23:32;;;;;;;;;;;;;;;10.06;82.71;101550.91;5565310;32;34696;-71
2023/01/04 13:26:40;;;;;;;;;;;;;;;10.67;80.94;101552.41;5552141;32;34222;-71
2023/01/04 13:29:49;;;;;;;;;;;;;;;11.09;78.53;101539.66;5566681;32;34479;-71
2023/01/04 13:32:56;;;;;;;;;;;;;;;10.99;75.90;101540.66;5539640;32;34479;-71
2023/01/04 13:36:23;;;;;;;;;;;;;;;11.09;76.87;101538.81;5554157;32;34865;-71
2023/01/04 13:39:29;;;;;;;;;;;;;;;10.72;76.75;101530.75;5541155;32;35076;-72
2023/01/04 13:42:39;;;;;;;;;;;;;;;10.55;79.00;101534.13;5552618;32;34206;-69
2023/01/04 13:45:53;;;;;;;;;;;;;;;10.38;80.05;101530.34;5566470;32;34091;-71
2023/01/04 13:49:16;;;;;;;;;;;;;;;10.43;80.52;101528.94;5538451;32;34983;-70
2023/01/04 13:52:25;;;;;;;;;;;;;;;10.43;80.14;101521.00;5552878;32;32839;-70
2023/01/04 13:55:53;;;;;;;;;;;;;;;10.24;80.73;101515.66;5557905;32;34795;-70
2023/01/04 13:58:58;;;;;;;;;;;;;;;9.93;82.89;101503.44;5567903;32;34622;-70
2023/01/04 14:02:12;;;;;;;;;;;;;;;9.88;80.92;101510.94;5567743;32;33780;-70
2023/01/04 14:05:21;;;;;;;;;;;;;;;9.57;84.46;101504.87;5568983;32;33483;-70
2023/01/04 14:08:30;;;;;;;;;;;;;;;9.19;89.75;101513.50;5567983;32;34866;-70
2023/01/04 14:12:02;;;;;;;;;;;;;;;9.08;85.53;101510.91;5555251;32;33481;-69
2023/01/04 14:15:22;;;;;;;;;;;;;;;9.16;83.80;101508.44;5555835;32;34748;-70
2023/01/04 14:18:30;;;;;;;;;;;;;;;9.12;86.70;101504.37;5542017;32;33767;-70
2023/01/04 14:21:36;;;;;;;;;;;;;;;9.01;91.26;101515.03;5568623;32;34984;-69
2023/01/04 14:24:41;;;;;;;;;;;;;;;8.83;95.62;101513.94;5555030;32;33362;-70
2023/01/04 14:28:23;;;;;;;;;;;;;;;8.69;98.78;101501.87;5557473;32;34816;-70
2023/01/04 14:31:33;;;;;;;;;;;;;;;8.45;100.00;101496.81;5541890;32;34856;-71
2023/01/04 14:34:41;;;;;;;;;;;;;;;8.32;99.50;101493.53;5554093;32;34204;-70
2023/01/04 14:37:49;;;;;;;;;;;;;;;8.17;100.00;101489.47;5568434;32;33702;-70
2023/01/04 14:40:56;;;;;;;;;;;;;;;8.21;100.00;101497.00;5555274;32;33490;-70
2023/01/04 14:44:21;;;;;;;;;;;;;;;8.14;100.00;101495.81;5554222;32;32796;-70
2023/01/04 14:47:26;;;;;;;;;;;;;;;8.03;100.00;101489.75;5553787;32;33930;-70
2023/01/04 14:50:33;;;;;;;;;;;;;;;7.90;100.00;101487.22;5541996;32;33939;-70
2023/01/04 14:53:37;;;;;;;;;;;;;;;7.84;100.00;101490.38;5554577;32;35139;-70
2023/01/04 14:56:41;;;;;;;;;;;;;;;7.64;100.00;101488.50;5568154;32;34230;-70
2023/01/04 14:59:45;;;;;;;;;;;;;;;7.43;100.00;101488.38;5567698;32;34204;-70
2023/01/04 15:02:50;;;;;;;;;;;;;;;7.45;100.00;101489.09;5568383;32;35029;-70
2023/01/04 15:05:55;;;;;;;;;;;;;;;7.22;100.00;101476.84;5553829;32;34327;-70
2023/01/04 15:08:59;;;;;;;;;;;;;;;6.97;100.00;101470.00;5553863;32;33426;-70
2023/01/04 15:12:03;;;;;;;;;;;;;;;6.88;100.00;101468.91;5554276;32;32848;-70
2023/01/04 15:15:08;;;;;;;;;;;;;;;6.84;100.00;101474.53;5540655;32;32567;-70
2023/01/04 15:18:12;;;;;;;;;;;;;;;6.73;100.00;101474.53;5541336;32;32881;-70
2023/01/04 15:21:19;;;;;;;;;;;;;;;6.54;100.00;101472.41;5542054;32;34575;-70
2023/01/04 15:24:28;;;;;;;;;;;;;;;6.33;100.00;101466.97;5553309;32;33082;-70
2023/01/04 15:27:39;;;;;;;;;;;;;;;6.34;100.00;101466.00;5567605;32;34222;-70
2023/01/04 15:30:47;;;;;;;;;;;;;;;6.23;100.00;101470.41;5554136;32;34170;-70
2023/01/04 15:33:54;;;;;;;;;;;;;;;6.02;100.00;101470.16;5553029;32;33518;-70
2023/01/04 15:36:59;;;;;;;;;;;;;;;5.92;100.00;101464.72;5554315;32;33952;-70
2023/01/04 15:40:07;;;;;;;;;;;;;;;6.12;100.00;101445.69;5567956;32;34301;-71
2023/01/04 15:43:15;;;;;;;;;;;;;;;6.07;100.00;101442.53;5540834;32;33186;-71
2023/01/04 15:46:22;;;;;;;;;;;;;;;6.05;100.00;101448.88;5566110;32;34659;-71
2023/01/04 15:49:29;;;;;;;;;;;;;;;6.07;100.00;101439.91;5567952;32;34362;-71
2023/01/04 15:52:37;;;;;;;;;;;;;;;6.06;100.00;101434.75;5551714;32;33313;-71
2023/01/04 15:55:41;;;;;;;;;;;;;;;6.06;100.00;101432.94;5566480;32;34953;-71
2023/01/04 15:58:50;;;;;;;;;;;;;;;6.05;100.00;101438.34;5567864;32;34530;-71
2023/01/04 16:01:55;;;;;;;;;;;;;;;5.93;100.00;101428.69;5566749;32;33091;-71
2023/01/04 16:05:01;;;;;;;;;;;;;;;5.80;100.00;101426.09;5566559;32;33265;-71
2023/01/04 16:08:05;;;;;;;;;;;;;;;5.74;100.00;101417.78;5554189;32;34270;-71
2023/01/04 16:11:14;;;;;;;;;;;;;;;5.65;100.00;101425.41;5562596;32;34078;-71
2023/01/04 16:14:21;;;;;;;;;;;;;;;5.57;100.00;101426.91;5567354;32;34884;-71
2023/01/04 16:17:26;;;;;;;;;;;;;;;5.48;100.00;101417.03;5552537;32;35208;-71
2023/01/04 16:20:33;;;;;;;;;;;;;;;5.32;100.00;101414.69;5551417;32;33409;-71
2023/01/04 16:23:40;;;;;;;;;;;;;;;5.32;100.00;101425.19;5552939;32;33803;-71
2023/01/04 16:26:46;;;;;;;;;;;;;;;5.33;100.00;101416.34;5566783;32;34138;-71
2023/01/04 16:29:52;;;;;;;;;;;;;;;5.32;100.00;101411.19;5553199;32;33366;-70
2023/01/04 16:32:57;;;;;;;;;;;;;;;5.19;100.00;101404.16;5553394;32;33575;-70
2023/01/04 16:36:08;;;;;;;;;;;;;;;5.12;100.00;101397.66;5553666;32;35457;-71
2023/01/04 16:39:12;;;;;;;;;;;;;;;5.03;100.00;101393.06;5553875;32;33954;-71
2023/01/04 16:42:17;;;;;;;;;;;;;;;4.99;100.00;101391.56;5566635;32;34191;-70
2023/01/04 16:45:22;;;;;;;;;;;;;;;5.02;100.00;101386.13;5553143;32;34794;-70
2023/01/04 16:48:27;;;;;;;;;;;;;;;4.99;100.00;101380.19;5552973;32;34335;-71
2023/01/04 16:51:34;;;;;;;;;;;;;;;4.96;100.00;101383.91;5567061;32;35247;-71
2023/01/04 16:54:41;;;;;;;;;;;;;;;4.92;100.00;101377.19;5567070;32;35116;-70
2023/01/04 16:57:49;;;;;;;;;;;;;;;4.92;100.00;101376.34;5553031;32;32891;-71
2023/01/04 17:01:10;;;;;;;;;;;;;;;4.87;100.00;101370.56;5540184;32;32745;-71
2023/01/04 17:04:23;;;;;;;;;;;;;;;4.85;100.00;101359.28;5553070;32;33509;-71
2023/01/04 17:07:31;;;;;;;;;;;;;;;4.77;100.00;101365.09;5540009;32;33975;-71
2023/01/04 17:10:39;;;;;;;;;;;;;;;4.71;100.00;101353.22;5553565;32;34245;-71